Terminal Aerodrome Forecast
Issued by NWS

Current Version | Previous Version | Text Only | Print | Product List | Glossary On
Versions: 1 2 3 4 5 6 7 8 9 10 11 12 13 14 15 16 17 18 19 20 21 22
000
FTUS41 KBGM 011700
TAFELM
TAF
KELM 011731Z 0118/0218 02005KT P6SM BKN035
     FM020200 VRB03KT P6SM SCT035
     FM020600 VRB03KT 2SM BR SCT025
      TEMPO 0208/0212 VRB03KT 1/2SM FG VV002
     FM021500 14005KT P6SM SCT050=

USA.gov is the U.S. government's official web portal to all federal, state and local government web resources and services.